Time;durP1;ratioP1;P1;durP2;ratioP2;P2;SDS_P1;SDS_P2;PMS_P1;PMS_P2;Temp;Humidity;BMP_temperature;BMP_pressure;BME280_temperature;BME280_humidity;BME280_pressure;Samples;Min_cycle;Max_cycle;Signal;HPM_P1;HPM_P2
2022/05/25 00:00:55;;;;;;;9.93;9.15;;;;;;;16.24;57.77;100806.25;5102339;28;20069;-67
2022/05/25 00:03:22;;;;;;;12.25;9.48;;;;;;;16.16;57.67;100796.56;5111986;27;20108;-67
2022/05/25 00:05:49;;;;;;;13.60;8.70;;;;;;;16.24;57.99;100815.56;5110539;28;20051;-66
2022/05/25 00:08:16;;;;;;;12.87;8.87;;;;;;;16.11;57.68;100788.22;5110853;28;20396;-66
2022/05/25 00:10:43;;;;;;;10.37;9.33;;;;;;;16.21;57.81;100810.56;5110284;27;20048;-70
2022/05/25 00:13:10;;;;;;;9.80;8.50;;;;;;;16.18;57.93;100813.16;5115490;28;20173;-69
2022/05/25 00:15:37;;;;;;;8.77;8.10;;;;;;;16.14;58.11;100817.72;5115433;27;20074;-68
2022/05/25 00:18:05;;;;;;;10.15;7.85;;;;;;;15.94;58.12;100796.44;5114699;28;20044;-68
2022/05/25 00:20:33;;;;;;;9.97;9.20;;;;;;;15.96;58.42;100811.03;5115591;28;20534;-68
2022/05/25 00:23:01;;;;;;;9.43;8.53;;;;;;;15.95;58.21;100821.47;5106199;28;20494;-69
2022/05/25 00:25:33;;;;;;;10.17;8.43;;;;;;;15.83;58.47;100790.19;5100842;27;20044;-69
2022/05/25 00:28:02;;;;;;;12.93;11.95;;;;;;;15.80;58.47;100791.63;5114629;27;20051;-68
2022/05/25 00:30:30;;;;;;;11.98;10.18;;;;;;;15.96;58.59;100811.03;5111284;27;20073;-69
2022/05/25 00:33:00;;;;;;;11.80;10.70;;;;;;;16.00;58.71;100814.91;5112072;27;20048;-68
2022/05/25 00:35:28;;;;;;;;;;;;;;;15.82;58.69;100817.47;5111059;28;20035;-68
2022/05/25 00:37:55;;;;;;;10.60;9.70;;;;;;;15.72;58.23;100780.22;5113593;28;19966;-69
2022/05/25 00:40:36;;;;;;;14.00;9.53;;;;;;;15.87;58.47;100797.69;5115748;27;20043;-69
2022/05/25 00:43:03;;;;;;;14.43;10.30;;;;;;;15.98;58.70;100823.69;5102856;28;20094;-68
2022/05/25 00:45:35;;;;;;;15.60;10.97;;;;;;;15.95;58.94;100812.19;5108715;28;20436;-68
2022/05/25 00:48:03;;;;;;;10.30;9.30;;;;;;;15.79;59.05;100801.19;5114252;27;20553;-69
2022/05/25 00:51:12;;;;;;;12.13;9.97;;;;;;;15.76;59.41;100803.81;5111421;27;20081;-68
2022/05/25 00:53:20;;;;;;;13.47;10.07;;;;;;;15.83;59.42;100816.34;5112247;27;20039;-69
2022/05/25 00:55:47;;;;;;;;;;;;;;;15.60;59.25;100815.31;5112578;28;20079;-70
2022/05/25 00:58:14;;;;;;;10.40;9.53;;;;;;;15.67;59.14;100798.06;5115352;27;19920;-70
2022/05/25 01:00:42;;;;;;;11.47;10.10;;;;;;;15.80;59.32;100813.31;5112511;27;20090;-69
2022/05/25 01:03:11;;;;;;;12.70;11.57;;;;;;;15.83;59.43;100813.53;5115538;28;20051;-70
2022/05/25 01:06:04;;;;;;;11.57;10.63;;;;;;;15.79;58.97;100812.47;5113904;28;20138;-70
2022/05/25 01:08:48;;;;;;;10.13;9.13;;;;;;;15.77;59.24;100797.03;5076533;28;20203;-70
2022/05/25 01:11:31;;;;;;;11.27;8.90;;;;;;;15.83;58.82;100807.91;5110391;28;20532;-68
2022/05/25 01:14:01;;;;;;;9.33;8.53;;;;;;;15.86;59.03;100812.06;5114387;28;20079;-68
2022/05/25 01:16:45;;;;;;;13.13;10.02;;;;;;;15.73;59.19;100787.56;5111117;28;20101;-68
2022/05/25 01:19:31;;;;;;;11.13;8.63;;;;;;;15.86;58.93;100815.75;5113176;28;20131;-68
2022/05/25 01:22:00;;;;;;;9.77;8.40;;;;;;;15.86;58.94;100812.91;5111445;28;20514;-68
2022/05/25 01:24:30;;;;;;;11.00;8.40;;;;;;;15.83;59.15;100819.16;5102032;28;20066;-68
2022/05/25 01:27:09;;;;;;;10.90;9.35;;;;;;;15.81;59.09;100815.00;5114243;28;20043;-67
2022/05/25 01:29:50;;;;;;;12.27;10.07;;;;;;;15.81;58.79;100815.00;5115334;28;20059;-68
2022/05/25 01:32:26;;;;;;;10.38;9.45;;;;;;;15.83;59.07;100815.53;5106259;28;20054;-68
2022/05/25 01:34:58;;;;;;;9.73;8.93;;;;;;;15.83;58.90;100827.63;5115265;27;20123;-68
2022/05/25 01:38:08;;;;;;;12.47;11.30;;;;;;;15.69;58.85;100804.22;5111586;28;20126;-68
2022/05/25 01:40:41;;;;;;;;;;;;;;;15.58;59.23;100822.38;5104714;28;20138;-67
2022/05/25 01:43:19;;;;;;;10.13;9.23;;;;;;;15.74;59.06;100815.38;5094445;28;19998;-67
2022/05/25 01:45:52;;;;;;;10.43;9.17;;;;;;;15.59;58.96;100796.75;5094738;28;20044;-68
2022/05/25 01:48:22;;;;;;;11.13;10.03;;;;;;;15.77;58.99;100826.03;5094634;28;20083;-67
2022/05/25 01:50:55;;;;;;;10.02;9.27;;;;;;;15.75;58.82;100827.47;5110894;28;20139;-68
2022/05/25 01:53:27;;;;;;;10.13;9.23;;;;;;;15.69;59.00;100811.81;5114346;28;20079;-67
2022/05/25 01:55:58;;;;;;;10.50;9.70;;;;;;;15.69;58.89;100818.31;5109339;28;20119;-68
2022/05/25 01:58:27;;;;;;;14.57;9.37;;;;;;;15.75;58.92;100822.69;5114478;28;20130;-67
2022/05/25 02:00:59;;;;;;;9.73;9.02;;;;;;;15.49;58.81;100762.34;5112481;28;20104;-67
2022/05/25 02:06:20;;;;;;;12.60;10.07;;;;;;;15.39;58.78;100767.00;5105722;28;20556;-66
2022/05/25 02:09:08;;;;;;;11.00;10.07;;;;;;;15.47;58.84;100785.13;5094114;28;20109;-66
2022/05/25 02:11:39;;;;;;;10.98;9.90;;;;;;;15.67;58.95;100819.75;5104523;28;20051;-67
2022/05/25 02:14:32;;;;;;;12.27;10.57;;;;;;;15.64;58.92;100819.19;5114112;28;20514;-66
2022/05/25 02:17:39;;;;;;;12.27;10.27;;;;;;;15.28;58.96;100770.25;5114124;28;20524;-66
2022/05/25 02:20:36;;;;;;;10.80;9.77;;;;;;;15.55;59.05;100811.75;5110949;28;20109;-66
2022/05/25 02:23:14;;;;;;;10.83;9.90;;;;;;;15.59;59.17;100815.63;5084047;28;20148;-66
2022/05/25 02:25:49;;;;;;;10.53;9.70;;;;;;;15.62;58.86;100820.63;5094879;28;20127;-66
2022/05/25 02:28:24;;;;;;;10.40;9.70;;;;;;;15.55;58.94;100815.38;5114310;28;20555;-67
2022/05/25 02:30:56;;;;;;;9.83;9.23;;;;;;;15.57;59.02;100815.94;5110137;28;20135;-67
2022/05/25 02:33:30;;;;;;;10.60;9.73;;;;;;;15.51;59.30;100805.06;5114378;28;20390;-68
2022/05/25 02:35:59;;;;;;;10.38;9.20;;;;;;;15.60;59.04;100820.13;5110028;28;20173;-67
2022/05/25 02:38:27;;;;;;;15.73;9.33;;;;;;;15.62;58.82;100813.03;5110906;28;20142;-68
2022/05/25 02:41:26;;;;;;;10.33;9.30;;;;;;;15.64;58.73;100824.81;5111998;28;20082;-67
2022/05/25 02:43:52;;;;;;;10.90;9.50;;;;;;;15.64;58.92;100822.00;5087976;28;20506;-67
2022/05/25 02:46:19;;;;;;;11.40;8.77;;;;;;;15.54;58.75;100810.09;5094279;28;20123;-67
2022/05/25 02:48:46;;;;;;;10.13;9.13;;;;;;;15.52;58.98;100810.41;5110388;28;20055;-68
2022/05/25 02:51:13;;;;;;;13.27;8.98;;;;;;;15.65;59.04;100840.53;5110319;28;20082;-68
2022/05/25 02:53:42;;;;;;;10.57;9.32;;;;;;;15.52;58.68;100816.03;5095908;27;20097;-67
2022/05/25 02:56:09;;;;;;;13.73;10.33;;;;;;;15.63;59.10;100842.84;5103022;28;20482;-68
2022/05/25 02:58:36;;;;;;;10.37;9.17;;;;;;;15.62;59.12;100846.81;5113217;28;20138;-67
2022/05/25 03:01:05;;;;;;;13.65;9.20;;;;;;;15.59;59.16;100829.72;5094696;28;20044;-66
2022/05/25 03:03:33;;;;;;;10.53;9.43;;;;;;;15.45;59.24;100823.16;5093307;28;20145;-68
2022/05/25 03:06:00;;;;;;;11.77;9.53;;;;;;;15.64;58.67;100843.69;5109535;28;20043;-68
2022/05/25 03:08:27;;;;;;;12.00;10.17;;;;;;;15.16;58.70;100762.31;5092990;28;20095;-70
2022/05/25 03:10:54;;;;;;;13.60;9.87;;;;;;;15.71;58.96;100846.97;5104878;28;20078;-69
2022/05/25 03:13:21;;;;;;;11.97;10.60;;;;;;;15.64;58.52;100833.25;5110603;28;20083;-68
2022/05/25 03:15:49;;;;;;;12.00;10.43;;;;;;;15.68;58.85;100835.50;5111923;28;20465;-68
2022/05/25 03:18:16;;;;;;;10.10;9.40;;;;;;;15.64;58.75;100838.06;5104329;28;20089;-67
2022/05/25 03:20:44;;;;;;;9.80;8.90;;;;;;;15.54;58.43;100826.97;5096111;28;20127;-68
2022/05/25 03:23:12;;;;;;;10.57;9.55;;;;;;;15.53;58.95;100828.13;5113117;28;20066;-67
2022/05/25 03:25:38;;;;;;;19.07;10.73;;;;;;;15.52;58.96;100838.53;5111079;28;20128;-67
2022/05/25 03:28:05;;;;;;;11.50;10.40;;;;;;;15.49;59.20;100830.72;5111223;28;20043;-67
2022/05/25 03:30:32;;;;;;;9.88;9.10;;;;;;;15.48;59.54;100828.19;5111261;28;20079;-69
2022/05/25 03:32:59;;;;;;;10.77;9.83;;;;;;;15.28;59.16;100809.66;5113648;28;20079;-68
2022/05/25 03:35:26;;;;;;;11.83;10.60;;;;;;;15.10;59.21;100780.41;5115416;27;20047;-68
2022/05/25 03:37:53;;;;;;;10.77;9.73;;;;;;;15.43;59.33;100831.09;5111256;28;20482;-67
2022/05/25 03:40:20;;;;;;;11.87;9.60;;;;;;;15.34;59.42;100834.59;5114557;27;20500;-67
2022/05/25 03:42:48;;;;;;;12.00;10.47;;;;;;;15.39;59.50;100828.06;5102211;28;20087;-66
2022/05/25 03:45:16;;;;;;;10.00;8.90;;;;;;;15.36;59.42;100820.25;5096526;28;20139;-66
2022/05/25 03:47:47;;;;;;;11.87;9.53;;;;;;;15.36;59.35;100837.13;5096615;28;20049;-65
2022/05/25 03:50:14;;;;;;;9.67;8.87;;;;;;;15.24;59.52;100817.88;5106358;28;20127;-66
2022/05/25 03:52:41;;;;;;;12.60;9.17;;;;;;;15.38;59.36;100840.44;5113573;28;20556;-67
2022/05/25 03:55:08;;;;;;;10.47;8.43;;;;;;;15.21;59.32;100804.41;5117079;28;20467;-68
2022/05/25 03:57:35;;;;;;;9.67;8.97;;;;;;;15.38;59.27;100841.31;5115014;28;20083;-68
2022/05/25 04:00:04;;;;;;;9.23;8.43;;;;;;;15.37;59.69;100842.44;5100113;28;20135;-68
2022/05/25 04:02:31;;;;;;;11.47;10.37;;;;;;;15.20;59.50;100822.44;5096885;28;20481;-68
2022/05/25 04:05:11;;;;;;;9.83;8.83;;;;;;;15.21;59.32;100823.28;5096207;28;20142;-69
2022/05/25 04:07:41;;;;;;;9.57;9.00;;;;;;;15.26;59.64;100826.03;5115146;28;20130;-68
2022/05/25 04:10:12;;;;;;;9.77;8.83;;;;;;;15.30;59.37;100844.78;5116892;28;20058;-68
2022/05/25 04:12:41;;;;;;;10.20;9.20;;;;;;;15.28;59.47;100837.78;5115386;28;20044;-68
2022/05/25 04:15:11;;;;;;;11.07;9.23;;;;;;;15.31;59.58;100856.88;5116883;28;20075;-68
2022/05/25 04:17:38;;;;;;;9.52;8.60;;;;;;;15.20;59.38;100842.13;5112619;28;20051;-68
2022/05/25 04:20:06;;;;;;;10.00;9.10;;;;;;;15.24;59.34;100846.00;5116399;28;20051;-68
2022/05/25 04:22:34;;;;;;;10.33;9.33;;;;;;;15.14;59.49;100835.78;5101455;28;20044;-67
2022/05/25 04:25:07;;;;;;;10.83;9.90;;;;;;;15.22;59.44;100851.13;5109954;28;20079;-68
2022/05/25 04:27:35;;;;;;;9.60;8.90;;;;;;;15.22;59.62;100865.19;5110417;28;20122;-68
2022/05/25 04:30:02;;;;;;;15.40;9.50;;;;;;;15.19;59.41;100854.53;5116304;28;20448;-68
2022/05/25 04:32:29;;;;;;;9.80;8.90;;;;;;;15.11;59.59;100852.38;5116454;28;20086;-68
2022/05/25 04:34:58;;;;;;;10.00;8.90;;;;;;;15.20;59.65;100867.47;5094214;28;20554;-67
2022/05/25 04:40:12;;;;;;;10.13;8.60;;;;;;;14.95;59.33;100834.09;5095438;28;20048;-65
2022/05/25 04:42:40;;;;;;;9.33;8.50;;;;;;;15.03;59.35;100850.28;5095767;28;20105;-65
2022/05/25 04:45:07;;;;;;;10.20;9.37;;;;;;;15.05;59.30;100853.63;5110988;28;20047;-66
2022/05/25 04:47:35;;;;;;;9.40;8.70;;;;;;;15.06;59.63;100877.78;5104851;28;20135;-66
2022/05/25 04:50:02;;;;;;;9.83;9.03;;;;;;;15.00;59.63;100882.66;5107388;28;20079;-66
2022/05/25 04:52:30;;;;;;;9.63;8.57;;;;;;;15.06;59.61;100897.47;5109216;28;20122;-66
2022/05/25 04:54:57;;;;;;;10.00;9.03;;;;;;;15.05;59.63;100895.81;5115489;28;20055;-67
2022/05/25 04:57:27;;;;;;;9.67;8.87;;;;;;;15.01;59.80;100891.91;5113800;28;20131;-67
2022/05/25 05:00:00;;;;;;;10.32;9.20;;;;;;;14.97;59.59;100888.88;5113214;28;20051;-67
2022/05/25 05:02:29;;;;;;;10.13;9.03;;;;;;;14.83;59.89;100885.97;5096573;28;20113;-67
2022/05/25 05:04:56;;;;;;;10.90;8.97;;;;;;;14.90;59.54;100886.44;5111611;28;20122;-68
2022/05/25 05:07:34;;;;;;;10.40;9.30;;;;;;;14.90;59.41;100886.44;5113164;28;20047;-68
2022/05/25 05:10:01;;;;;;;10.73;9.63;;;;;;;14.92;59.43;100895.41;5114279;28;20127;-69
2022/05/25 05:12:28;;;;;;;10.67;9.60;;;;;;;15.02;59.30;100910.47;5111089;28;20047;-68
2022/05/25 05:14:57;;;;;;;10.77;9.83;;;;;;;14.92;59.18;100895.41;5112217;28;20127;-69
2022/05/25 05:17:24;;;;;;;10.63;9.43;;;;;;;14.99;59.23;100914.72;5110013;27;20078;-68
2022/05/25 05:19:51;;;;;;;10.47;9.43;;;;;;;14.97;59.54;100914.19;5105039;27;20059;-69
2022/05/25 05:22:18;;;;;;;11.27;9.97;;;;;;;14.86;59.50;100919.09;5107061;28;20112;-67
2022/05/25 05:24:45;;;;;;;11.63;9.73;;;;;;;14.95;59.52;100927.72;5111397;27;20071;-65
2022/05/25 05:27:11;;;;;;;11.33;10.27;;;;;;;14.96;59.64;100920.13;5111517;27;20078;-66
2022/05/25 05:29:38;;;;;;;10.90;10.00;;;;;;;14.99;59.55;100916.72;5113171;27;20082;-66
2022/05/25 05:32:06;;;;;;;10.57;9.60;;;;;;;14.86;59.52;100895.78;5109514;27;20127;-66
2022/05/25 05:34:33;;;;;;;10.57;9.70;;;;;;;14.98;59.67;100915.88;5113576;28;20047;-66
2022/05/25 05:37:05;;;;;;;10.80;10.00;;;;;;;15.08;59.33;100920.53;5112603;28;20075;-71
2022/05/25 05:39:36;;;;;;;11.60;10.60;;;;;;;15.18;59.54;100920.41;5114575;28;20067;-77
2022/05/25 05:42:09;;;;;;;10.80;9.90;;;;;;;15.12;59.38;100911.19;5115203;28;20489;-76
2022/05/25 05:44:40;;;;;;;10.97;9.90;;;;;;;15.26;59.34;100918.88;5099376;27;20521;-69
2022/05/25 05:47:12;;;;;;;11.83;11.13;;;;;;;15.41;59.36;100936.34;5112824;28;20150;-68
2022/05/25 05:49:41;;;;;;;9.67;9.07;;;;;;;15.61;59.21;100968.16;5112747;27;20168;-68
2022/05/25 05:52:08;;;;;;;10.20;9.43;;;;;;;15.47;59.56;100964.44;5113015;28;20155;-69
2022/05/25 05:54:37;;;;;;;9.93;9.13;;;;;;;15.41;59.40;100970.13;5110514;28;20047;-69
2022/05/25 05:57:05;;;;;;;8.83;8.23;;;;;;;15.45;59.04;100961.91;5110529;28;20089;-69
2022/05/25 05:59:32;;;;;;;10.07;9.10;;;;;;;15.65;59.06;100977.66;5112928;27;20044;-69
2022/05/25 06:02:00;;;;;;;11.27;10.50;;;;;;;15.85;58.53;100985.00;5111622;28;20071;-69
2022/05/25 06:04:27;;;;;;;9.40;8.50;;;;;;;15.99;58.40;100983.09;5113868;28;20516;-69
2022/05/25 06:06:58;;;;;;;10.50;9.40;;;;;;;15.97;58.30;100984.56;5103003;27;20051;-71
2022/05/25 06:09:25;;;;;;;9.57;8.70;;;;;;;16.14;57.99;100982.00;5106921;28;20550;-70
2022/05/25 06:11:52;;;;;;;10.23;9.23;;;;;;;16.40;57.43;100973.09;5110891;27;20555;-69
2022/05/25 06:14:18;;;;;;;10.07;9.17;;;;;;;16.87;57.34;101000.16;5104033;28;20085;-68
2022/05/25 06:19:33;;;;;;;9.68;8.68;;;;;;;17.44;55.68;100980.06;5104101;28;20423;-68
2022/05/25 06:22:12;;;;;;;9.82;8.85;;;;;;;17.75;55.41;100999.97;5104824;27;20047;-68
2022/05/25 06:24:45;;;;;;;11.77;9.97;;;;;;;17.77;55.26;101006.97;5108839;27;20236;-68
2022/05/25 06:27:14;;;;;;;8.10;7.50;;;;;;;17.65;54.59;100981.28;5110686;28;20383;-69
2022/05/25 06:29:43;;;;;;;9.85;8.95;;;;;;;17.65;54.64;100963.50;5109311;27;20134;-68
2022/05/25 06:32:12;;;;;;;10.05;9.13;;;;;;;17.97;54.43;100987.88;5109791;28;20047;-68
2022/05/25 06:34:41;;;;;;;9.32;8.82;;;;;;;18.09;53.76;100995.81;5111130;27;20123;-68
2022/05/25 06:37:23;;;;;;;10.17;8.07;;;;;;;18.17;53.80;100987.38;5107574;27;20039;-68
2022/05/25 06:39:51;;;;;;;8.10;7.53;;;;;;;18.41;53.64;101008.84;5101225;27;20328;-74
2022/05/25 06:42:19;;;;;;;8.10;7.70;;;;;;;18.42;53.00;100997.19;5109699;28;20097;-72
2022/05/25 06:44:46;;;;;;;9.95;9.35;;;;;;;18.52;52.91;101010.22;5111374;28;20075;-71
2022/05/25 06:47:17;;;;;;;9.52;8.93;;;;;;;18.70;52.95;101006.38;5111401;28;20122;-67
2022/05/25 06:49:45;;;;;;;9.70;9.10;;;;;;;18.69;52.68;100973.56;5109616;28;20069;-66
2022/05/25 06:52:13;;;;;;;11.27;10.13;;;;;;;18.85;52.49;100990.16;5100833;27;20067;-67
2022/05/25 06:54:41;;;;;;;11.93;11.13;;;;;;;18.63;52.08;100963.56;5100801;28;20492;-68
2022/05/25 06:57:08;;;;;;;9.35;8.68;;;;;;;18.85;52.19;100993.81;5102558;27;20064;-68
2022/05/25 06:59:35;;;;;;;11.80;9.02;;;;;;;18.97;51.82;101010.16;5105997;27;20531;-68
2022/05/25 07:02:02;;;;;;;9.38;8.77;;;;;;;18.94;52.01;101003.19;5100465;28;20516;-67
2022/05/25 07:04:29;;;;;;;9.52;8.93;;;;;;;19.04;51.93;101009.69;5110111;28;20048;-67
2022/05/25 07:07:03;;;;;;;11.55;10.85;;;;;;;19.20;51.71;101012.94;5107091;28;20471;-67
2022/05/25 07:09:31;;;;;;;11.93;10.98;;;;;;;19.22;51.45;101011.44;5099865;28;20047;-67
2022/05/25 07:12:01;;;;;;;8.93;8.23;;;;;;;19.39;51.16;101022.81;5107262;28;20199;-66
2022/05/25 07:14:28;;;;;;;9.30;8.52;;;;;;;19.52;51.06;101035.19;5095084;28;20081;-67
2022/05/25 07:16:55;;;;;;;10.10;9.40;;;;;;;19.62;50.88;101032.06;5109785;28;20051;-67
2022/05/25 07:19:22;;;;;;;10.98;9.98;;;;;;;19.86;50.73;101037.28;5113241;28;20071;-68
2022/05/25 07:21:49;;;;;;;9.07;8.48;;;;;;;20.16;50.34;101050.81;5113035;28;20075;-67
2022/05/25 07:24:16;;;;;;;9.90;9.20;;;;;;;20.36;49.93;101041.63;5110891;28;20048;-68
2022/05/25 07:26:44;;;;;;;9.75;9.05;;;;;;;20.55;49.75;101044.16;5112598;28;20043;-68
2022/05/25 07:29:12;;;;;;;9.77;8.88;;;;;;;20.55;49.39;101027.13;5111506;28;20532;-67
2022/05/25 07:31:49;;;;;;;10.68;9.88;;;;;;;20.53;49.32;101020.94;5106274;28;20083;-67
2022/05/25 07:34:21;;;;;;;9.57;8.85;;;;;;;20.59;49.15;101025.28;5107469;28;20043;-67
2022/05/25 07:36:55;;;;;;;9.13;8.30;;;;;;;20.79;48.93;101035.09;5109069;28;20047;-68
2022/05/25 07:39:26;;;;;;;10.02;9.15;;;;;;;20.75;48.91;101020.72;5109689;28;20047;-68
2022/05/25 07:41:56;;;;;;;11.40;10.30;;;;;;;20.93;48.69;101035.72;5106587;28;20077;-67
2022/05/25 07:44:29;;;;;;;11.82;9.73;;;;;;;21.04;48.17;101045.50;5105767;28;20650;-68
2022/05/25 07:46:56;;;;;;;9.02;8.32;;;;;;;21.00;48.36;101047.38;5103379;28;20075;-68
2022/05/25 07:49:23;;;;;;;9.38;8.15;;;;;;;21.16;48.01;101046.78;5109162;28;20060;-67
2022/05/25 07:51:53;;;;;;;8.38;7.72;;;;;;;21.22;47.41;101026.38;5106869;28;20054;-67
2022/05/25 07:54:20;;;;;;;11.05;10.43;;;;;;;21.50;47.21;101048.66;5105880;28;20102;-65
2022/05/25 07:56:47;;;;;;;9.18;8.65;;;;;;;21.83;46.69;101050.81;5106634;28;20145;-68
2022/05/25 07:59:16;;;;;;;8.95;8.43;;;;;;;22.11;46.27;101059.66;5110688;28;20127;-67
2022/05/25 08:07:24;;;;;;;10.05;8.18;;;;;;;22.35;45.46;101065.50;5112598;28;20171;-68
2022/05/25 08:09:55;;;;;;;8.40;7.75;;;;;;;22.30;44.84;101057.19;5109932;28;20075;-68
2022/05/25 08:12:23;;;;;;;9.07;7.80;;;;;;;22.21;44.37;101054.41;5106185;28;20127;-67
2022/05/25 08:14:50;;;;;;;9.45;8.93;;;;;;;22.11;44.38;101065.34;5107085;28;20101;-68
2022/05/25 08:17:17;;;;;;;8.80;7.82;;;;;;;22.12;44.48;101047.94;5104909;28;20427;-68
2022/05/25 08:19:43;;;;;;;8.13;7.63;;;;;;;22.23;44.38;101059.75;5112480;28;20096;-67
2022/05/25 08:22:11;;;;;;;9.50;8.68;;;;;;;22.26;44.19;101056.22;5106292;28;20048;-68
2022/05/25 08:24:38;;;;;;;8.30;7.60;;;;;;;22.34;43.95;101065.84;5113241;27;20406;-68
2022/05/25 08:27:06;;;;;;;8.13;7.32;;;;;;;22.37;43.75;101066.00;5112286;27;20047;-68
2022/05/25 08:29:33;;;;;;;8.68;8.07;;;;;;;22.30;43.61;101044.97;5111768;28;20096;-68
2022/05/25 08:32:00;;;;;;;9.43;8.30;;;;;;;22.35;43.23;101062.66;5111037;28;20043;-68
2022/05/25 08:34:28;;;;;;;8.10;7.60;;;;;;;22.40;43.01;101059.59;5108817;27;20071;-68
2022/05/25 08:36:55;;;;;;;9.65;8.85;;;;;;;22.35;42.61;101037.03;5108303;28;20097;-67
2022/05/25 08:39:22;;;;;;;9.45;8.77;;;;;;;22.61;42.83;101064.44;5100658;28;20450;-68
2022/05/25 08:41:51;;;;;;;8.25;7.75;;;;;;;22.70;42.62;101063.16;5107698;28;20082;-70
2022/05/25 08:44:22;;;;;;;8.50;7.80;;;;;;;22.83;42.17;101055.47;5105541;27;20047;-68
2022/05/25 08:46:55;;;;;;;8.57;7.95;;;;;;;22.91;42.08;101057.41;5104998;27;20051;-68
2022/05/25 08:49:24;;;;;;;8.27;7.68;;;;;;;23.14;42.28;101062.69;5104072;27;20043;-67
2022/05/25 08:51:55;;;;;;;8.38;7.78;;;;;;;23.09;41.51;101058.06;5108792;27;20079;-68
2022/05/25 08:54:24;;;;;;;7.88;7.38;;;;;;;23.01;41.00;101061.00;5099243;27;20130;-65
2022/05/25 08:57:13;;;;;;;;;;;;;;;22.87;42.76;101064.16;5099132;27;22771;-66
2022/05/25 08:59:52;;;;;;;9.05;8.55;;;;;;;23.15;41.47;101047.28;5139515;27;20022;-66
2022/05/25 09:02:28;;;;;;;8.00;7.50;;;;;;;23.38;41.37;101059.91;5126620;27;20506;-66
2022/05/25 09:05:07;;;;;;;7.75;7.25;;;;;;;23.68;40.93;101053.13;5105800;28;20139;-66
2022/05/25 09:07:52;;;;;;;8.07;7.43;;;;;;;23.99;40.53;101055.34;5107318;28;20563;-66
2022/05/25 09:10:20;;;;;;;8.55;7.95;;;;;;;24.30;39.70;101038.38;5103453;28;20297;-66
2022/05/25 09:13:06;;;;;;;9.10;8.05;;;;;;;24.58;39.47;101029.00;5103698;28;20055;-67
2022/05/25 09:16:15;;;;;;;8.65;7.95;;;;;;;24.92;38.75;101030.34;5109605;27;20051;-71
2022/05/25 09:18:33;;;;;;;8.10;7.65;;;;;;;25.16;38.27;101051.44;5112834;28;20055;-70
2022/05/25 09:21:03;;;;;;;9.77;9.00;;;;;;;25.15;37.85;101033.47;5107801;27;20082;-67
2022/05/25 09:23:31;;;;;;;7.63;7.22;;;;;;;25.46;37.74;101043.22;5107642;27;20134;-69
2022/05/25 09:25:58;;;;;;;9.82;9.13;;;;;;;25.59;37.11;101043.97;5111039;28;20058;-69
2022/05/25 09:28:33;;;;;;;7.88;7.32;;;;;;;25.83;36.15;101040.06;5110325;27;20048;-71
2022/05/25 09:31:02;;;;;;;7.78;7.10;;;;;;;26.06;35.93;101041.03;5106690;27;20146;-68
2022/05/25 09:33:39;;;;;;;8.23;7.63;;;;;;;26.23;35.99;101034.84;5108169;28;20571;-66
2022/05/25 09:36:14;;;;;;;9.88;9.15;;;;;;;26.42;35.80;101033.19;5108680;27;20044;-66
2022/05/25 09:38:55;;;;;;;8.25;7.53;;;;;;;26.53;35.28;101033.44;5111666;27;20112;-67
2022/05/25 09:41:25;;;;;;;8.90;8.30;;;;;;;26.67;34.67;101031.72;5106826;27;20135;-69
2022/05/25 09:43:54;;;;;;;8.40;7.68;;;;;;;26.84;34.36;101039.00;5105320;27;20043;-67
2022/05/25 09:46:39;;;;;;;9.25;8.55;;;;;;;27.03;34.66;101040.16;5101551;27;20051;-67
2022/05/25 09:49:24;;;;;;;11.27;10.65;;;;;;;27.15;34.12;101037.97;5108796;27;20525;-68
2022/05/25 09:51:52;;;;;;;8.80;8.20;;;;;;;27.20;33.69;101013.03;5109685;28;20054;-67
2022/05/25 09:54:28;;;;;;;8.60;7.93;;;;;;;27.44;33.55;101049.91;5097471;27;20128;-68
2022/05/25 09:57:08;;;;;;;8.70;8.10;;;;;;;27.46;33.66;101023.75;5103141;27;20083;-67
2022/05/25 10:00:03;;;;;;;8.60;7.90;;;;;;;27.51;33.49;101021.34;5109604;27;20081;-67
2022/05/25 10:02:36;;;;;;;9.15;8.65;;;;;;;27.81;33.33;101034.97;5109852;27;20051;-67
2022/05/25 10:05:14;;;;;;;8.75;8.18;;;;;;;28.10;32.85;101036.19;5111678;27;20039;-67
2022/05/25 10:07:49;;;;;;;7.82;7.18;;;;;;;28.21;32.01;101042.13;5109903;27;20471;-67
2022/05/25 10:10:25;;;;;;;9.07;7.95;;;;;;;28.30;32.57;101040.56;5105991;28;20080;-67
2022/05/25 10:13:12;;;;;;;8.73;8.23;;;;;;;28.43;32.14;101037.50;5104817;28;20509;-68
2022/05/25 10:15:43;;;;;;;8.63;8.20;;;;;;;28.63;31.63;101049.66;5102543;28;20044;-69
2022/05/25 10:18:15;;;;;;;9.25;8.55;;;;;;;28.68;31.81;101027.13;5099825;28;20138;-69
2022/05/25 10:20:41;;;;;;;11.88;10.95;;;;;;;28.91;31.29;101052.00;5098537;27;20142;-69
2022/05/25 10:23:23;;;;;;;9.07;8.57;;;;;;;29.01;30.61;101051.34;5105508;27;20083;-70
2022/05/25 10:25:53;;;;;;;8.52;7.95;;;;;;;29.11;30.51;101044.84;5103028;28;20093;-68
2022/05/25 10:28:28;;;;;;;9.32;8.73;;;;;;;29.17;30.35;101053.97;5103407;27;20418;-69
2022/05/25 10:37:00;;;;;;;8.90;8.40;;;;;;;29.33;30.58;101025.72;5104232;27;20051;-68
2022/05/25 10:39:30;;;;;;;8.48;7.75;;;;;;;29.50;30.08;101041.50;5104295;28;20051;-69
2022/05/25 10:42:02;;;;;;;8.15;7.55;;;;;;;29.63;29.65;101047.81;5108896;27;20502;-69
2022/05/25 10:44:45;;;;;;;7.65;7.05;;;;;;;29.50;29.73;101013.56;5109779;28;20059;-68
2022/05/25 10:47:36;;;;;;;8.30;7.80;;;;;;;29.69;29.26;101028.94;5110108;27;20398;-69
2022/05/25 10:50:11;;;;;;;9.32;8.65;;;;;;;29.68;29.58;101015.78;5102721;28;20109;-69
2022/05/25 10:52:43;;;;;;;8.63;8.13;;;;;;;30.02;29.28;101042.34;5107882;28;20499;-68
2022/05/25 10:55:09;;;;;;;11.10;10.50;;;;;;;30.09;29.03;101042.38;5107356;28;20176;-69
2022/05/25 10:57:36;;;;;;;9.13;8.43;;;;;;;30.28;29.08;101054.84;5099447;27;20138;-68
2022/05/25 11:00:10;;;;;;;8.95;8.45;;;;;;;30.27;28.18;101030.97;5104399;28;20120;-67
2022/05/25 11:02:46;;;;;;;8.20;7.72;;;;;;;30.44;28.05;101059.03;5106227;27;20486;-70
2022/05/25 11:05:32;;;;;;;8.23;7.55;;;;;;;30.68;28.32;101045.13;5094730;27;20130;-69
2022/05/25 11:08:54;;;;;;;8.93;8.32;;;;;;;30.73;28.73;101036.06;5100146;28;20060;-70
2022/05/25 11:11:24;;;;;;;10.00;9.40;;;;;;;30.92;27.95;101043.56;5042406;28;20057;-70
2022/05/25 11:14:19;;;;;;;9.57;8.98;;;;;;;30.88;28.40;101032.03;5096686;28;20134;-70
2022/05/25 11:17:24;;;;;;;9.50;9.00;;;;;;;31.06;28.64;101031.25;5101461;28;20079;-69
2022/05/25 11:20:12;;;;;;;8.95;8.27;;;;;;;31.28;27.32;101032.91;5102094;27;20466;-70
2022/05/25 11:22:45;;;;;;;8.38;7.90;;;;;;;31.50;27.95;101051.09;5106155;28;20127;-69
2022/05/25 11:25:38;;;;;;;10.10;9.25;;;;;;;31.38;27.56;101035.00;5107001;28;20075;-69
2022/05/25 11:28:43;;;;;;;8.65;8.10;;;;;;;31.29;27.59;101034.56;5109317;27;20071;-69
2022/05/25 11:31:28;;;;;;;9.45;8.95;;;;;;;31.48;28.05;101033.34;5103860;28;20047;-69
2022/05/25 11:34:26;;;;;;;8.63;7.93;;;;;;;31.67;27.70;101034.16;5105048;28;21117;-69
2022/05/25 11:37:28;;;;;;;8.43;7.93;;;;;;;31.59;27.22;101024.66;5106738;28;20504;-70
2022/05/25 11:40:26;;;;;;;9.38;8.85;;;;;;;31.58;27.52;101018.06;5099855;28;20046;-69
2022/05/25 11:43:41;;;;;;;9.43;8.63;;;;;;;31.76;27.16;101040.31;5108785;28;20169;-69
2022/05/25 11:46:32;;;;;;;9.70;9.10;;;;;;;32.14;26.73;101029.97;5064919;28;20110;-69
2022/05/25 11:49:27;;;;;;;11.02;10.35;;;;;;;32.36;26.26;101050.13;5102693;28;20042;-70
2022/05/25 11:52:29;;;;;;;10.15;9.50;;;;;;;32.33;26.37;101028.66;5099101;28;20138;-69
2022/05/25 11:55:04;;;;;;;11.02;10.23;;;;;;;32.32;25.37;101010.50;5067141;27;20146;-68
2022/05/25 11:57:38;;;;;;;11.73;11.02;;;;;;;32.61;25.48;101013.28;5102305;28;20456;-69
2022/05/25 12:00:21;;;;;;;9.45;8.77;;;;;;;32.69;25.17;101022.75;5102879;28;20075;-69
2022/05/25 12:03:12;;;;;;;8.10;7.70;;;;;;;32.73;25.16;101020.66;5107842;28;20083;-68
2022/05/25 12:05:39;;;;;;;8.93;8.18;;;;;;;33.07;24.06;101025.84;5110355;28;20056;-68
2022/05/25 12:08:43;;;;;;;8.43;7.70;;;;;;;33.59;23.87;101020.06;5115044;28;20174;-69